createdAt,value
2018-10-03T00:00:00.913Z,82.71
2018-10-03T00:00:27.049Z,82.61
2018-10-03T00:00:53.186Z,83
2018-10-03T00:01:19.316Z,82.81
2018-10-03T00:01:45.452Z,83
2018-10-03T00:02:11.578Z,83.28
2018-10-03T00:02:37.719Z,83.09
2018-10-03T00:03:03.851Z,83
2018-10-03T00:03:29.987Z,83.09
2018-10-03T00:03:56.115Z,82.81
2018-10-03T00:04:22.246Z,83
2018-10-03T00:04:48.429Z,83
2018-10-03T00:05:14.556Z,82.9
2018-10-03T00:05:40.690Z,82.9
2018-10-03T00:06:06.821Z,83.09
2018-10-03T00:06:32.958Z,83.18
2018-10-03T00:06:59.087Z,83
2018-10-03T00:07:25.217Z,83.09
2018-10-03T00:07:51.370Z,83
2018-10-03T00:08:17.505Z,83.09
2018-10-03T00:08:43.634Z,83.09
2018-10-03T00:09:09.798Z,83.09
2018-10-03T00:09:35.932Z,83.18
2018-10-03T00:10:02.087Z,83.47
2018-10-03T00:10:28.215Z,83.47
2018-10-03T00:10:54.351Z,84.14
2018-10-03T00:11:20.504Z,83.76
2018-10-03T00:11:46.630Z,83.28
2018-10-03T00:12:12.810Z,83.38
2018-10-03T00:12:38.946Z,82.9
2018-10-03T00:13:05.076Z,83.28
2018-10-03T00:13:31.216Z,83.18
2018-10-03T00:13:57.356Z,83.18
2018-10-03T00:14:23.486Z,83.47
2018-10-03T00:14:49.611Z,83
2018-10-03T00:15:15.751Z,83.57
2018-10-03T00:15:41.875Z,83.67
2018-10-03T00:16:08.005Z,83.38
2018-10-03T00:16:34.132Z,83.86
2018-10-03T00:17:00.290Z,84.05
2018-10-03T00:17:26.422Z,84.67
2018-10-03T00:17:52.559Z,84.77
2018-10-03T00:18:18.691Z,84.58
2018-10-03T00:18:44.844Z,84.39
2018-10-03T00:19:10.976Z,84.58
2018-10-03T00:19:37.110Z,84.48
2018-10-03T00:20:03.245Z,84.39
2018-10-03T00:20:29.379Z,84.96
2018-10-03T00:20:55.563Z,85.05
2018-10-03T00:21:21.706Z,84.86
2018-10-03T00:21:47.856Z,84.77
2018-10-03T00:22:13.990Z,84.86
2018-10-03T00:22:40.118Z,84.86
2018-10-03T00:23:06.249Z,84.86
2018-10-03T00:23:32.421Z,84.96
2018-10-03T00:23:58.552Z,84.86
2018-10-03T00:24:24.713Z,84.52
2018-10-03T00:24:50.871Z,85.1
2018-10-03T00:25:17.019Z,84.86
2018-10-03T00:25:43.160Z,85.05
2018-10-03T00:26:09.296Z,84.86
2018-10-03T00:26:35.427Z,85.34
2018-10-03T00:27:01.556Z,85.15
2018-10-03T00:27:27.690Z,84.67
2018-10-03T00:27:53.826Z,84.67
2018-10-03T00:28:19.956Z,84.86
2018-10-03T00:28:46.090Z,84.96
2018-10-03T00:29:12.222Z,84.77
2018-10-03T00:29:38.382Z,85.15
2018-10-03T00:30:04.513Z,85.53
2018-10-03T00:30:30.670Z,85.53
2018-10-03T00:30:56.805Z,85.44
2018-10-03T00:31:22.950Z,85.34
2018-10-03T00:31:49.074Z,85.05
2018-10-03T00:32:15.212Z,85.53
2018-10-03T00:32:41.340Z,85.34
2018-10-03T00:33:07.465Z,85.15
2018-10-03T00:33:33.599Z,85.25
2018-10-03T00:33:59.731Z,85.34
2018-10-03T00:34:25.867Z,85.15
2018-10-03T00:34:51.996Z,85.82
2018-10-03T00:35:18.133Z,86.2
2018-10-03T00:35:44.267Z,86.39
2018-10-03T00:36:10.407Z,86.2
2018-10-03T00:36:36.565Z,85.91
2018-10-03T00:37:02.699Z,86.1
2018-10-03T00:37:29.125Z,85.82
2018-10-03T00:37:55.262Z,86.01
2018-10-03T00:38:21.419Z,86.1
2018-10-03T00:38:47.578Z,85.91
2018-10-03T00:39:13.705Z,86.3
2018-10-03T00:39:39.835Z,86.01
2018-10-03T00:40:06.179Z,85.91
2018-10-03T00:40:32.269Z,85.91
2018-10-03T00:40:58.426Z,86.1
2018-10-03T00:41:24.588Z,85.91
2018-10-03T00:41:50.808Z,86.1
2018-10-03T00:42:17.014Z,86.49
2018-10-03T00:42:43.202Z,86.3
2018-10-03T00:43:09.368Z,86.3
2018-10-03T00:43:35.540Z,86.3
2018-10-03T00:44:01.712Z,86.77
2018-10-03T00:44:27.840Z,86.96
2018-10-03T00:44:53.974Z,87.21
2018-10-03T00:45:20.111Z,87.06
2018-10-03T00:45:46.240Z,87.21
2018-10-03T00:46:12.402Z,87.44
2018-10-03T00:46:38.556Z,87.21
2018-10-03T00:47:04.711Z,87.4
2018-10-03T00:47:30.845Z,87.73
2018-10-03T00:47:56.974Z,87.25
2018-10-03T00:48:23.112Z,86.96
2018-10-03T00:48:49.243Z,86.87
2018-10-03T00:49:15.375Z,86.96
2018-10-03T00:49:41.527Z,87.06
2018-10-03T00:50:07.691Z,86.3
2018-10-03T00:50:33.817Z,86.3
2018-10-03T00:50:59.951Z,86.3
2018-10-03T00:51:26.114Z,85.82
2018-10-03T00:51:52.251Z,85.91
2018-10-03T00:52:18.400Z,86.1
2018-10-03T00:52:44.540Z,85.91
2018-10-03T00:53:10.699Z,86.39
2018-10-03T00:53:36.825Z,86.68
2018-10-03T00:54:02.958Z,86.58
2018-10-03T00:54:29.092Z,86.87
2018-10-03T00:54:55.228Z,86.2
2018-10-03T00:55:21.356Z,86.39
2018-10-03T00:55:47.491Z,86.3
2018-10-03T00:56:13.627Z,86.68
2018-10-03T00:56:39.789Z,86.87
2018-10-03T00:57:05.965Z,85.63
2018-10-03T00:57:32.101Z,86.1
2018-10-03T00:57:58.231Z,86.1
2018-10-03T00:58:24.385Z,85.82
2018-10-03T00:58:50.558Z,85.63
2018-10-03T00:59:16.687Z,85.91
2018-10-03T00:59:42.818Z,85.91
2018-10-03T01:00:08.970Z,86.58
2018-10-03T01:00:35.106Z,86.58
2018-10-03T01:01:01.262Z,86.49
2018-10-03T01:01:27.389Z,86.68
2018-10-03T01:01:53.521Z,86.3
2018-10-03T01:02:19.652Z,86.77
2018-10-03T01:02:45.786Z,86.77
2018-10-03T01:03:11.927Z,86.77
2018-10-03T01:03:38.082Z,86.87
2018-10-03T01:04:04.696Z,86.77
2018-10-03T01:04:30.831Z,86.87
2018-10-03T01:04:56.981Z,86.3
2018-10-03T01:05:23.122Z,86.2
2018-10-03T01:05:49.270Z,86.1
2018-10-03T01:06:15.433Z,86.68
2018-10-03T01:06:41.556Z,87.35
2018-10-03T01:07:07.691Z,87.29
2018-10-03T01:07:33.821Z,86.53
2018-10-03T01:07:59.996Z,86.68
2018-10-03T01:08:26.124Z,86.39
2018-10-03T01:08:53.521Z,86.3
2018-10-03T01:09:19.602Z,85.82
2018-10-03T01:09:45.744Z,86.72
2018-10-03T01:10:11.896Z,85.67
2018-10-03T01:10:38.052Z,86.24
2018-10-03T01:11:04.224Z,85.86
2018-10-03T01:11:30.767Z,85.77
2018-10-03T01:11:57.498Z,86.2
2018-10-03T01:12:24.196Z,86.05
2018-10-03T01:12:53.026Z,85.91
2018-10-03T01:13:19.889Z,86.01
2018-10-03T01:13:46.633Z,85.72
2018-10-03T01:14:12.825Z,85.63
2018-10-03T01:14:39.946Z,86.01
2018-10-03T01:15:06.284Z,86.68
2018-10-03T01:15:32.736Z,86.87
2018-10-03T01:15:58.849Z,85.86
2018-10-03T01:16:24.990Z,86.77
2018-10-03T01:16:51.291Z,85.91
2018-10-03T01:17:17.792Z,86.77
2018-10-03T01:17:44.049Z,86.39
2018-10-03T01:18:10.201Z,86.2
2018-10-03T01:18:36.320Z,86.58
2018-10-03T01:19:02.592Z,86.96
2018-10-03T01:19:29.141Z,87.54
2018-10-03T01:19:55.358Z,87.54
2018-10-03T01:20:21.876Z,87.63
2018-10-03T01:20:48.111Z,87.25
2018-10-03T01:21:14.360Z,87.25
2018-10-03T01:21:40.549Z,87.15
2018-10-03T01:22:06.988Z,87.35
2018-10-03T01:22:33.512Z,87.25
2018-10-03T01:22:59.764Z,87.25
2018-10-03T01:23:25.911Z,87.25
2018-10-03T01:23:52.278Z,87.25
2018-10-03T01:24:19.022Z,87.35
2018-10-03T01:24:45.108Z,87.25
2018-10-03T01:25:11.491Z,87.44
2018-10-03T01:25:38.435Z,87.73
2018-10-03T01:26:04.957Z,87.54
2018-10-03T01:26:31.972Z,88.2
2018-10-03T01:26:58.163Z,88.01
2018-10-03T01:27:24.327Z,87.73
2018-10-03T01:27:50.632Z,88.11
2018-10-03T01:28:18.113Z,87.92
2018-10-03T01:28:44.452Z,88.2
2018-10-03T01:29:10.826Z,87.35
2018-10-03T01:29:37.278Z,87.54
2018-10-03T01:30:03.913Z,87.63
2018-10-03T01:30:30.341Z,87.44
2018-10-03T01:30:56.905Z,87.54
2018-10-03T01:31:23.325Z,87.35
2018-10-03T01:31:49.414Z,87.73
2018-10-03T01:32:16.205Z,88.01
2018-10-03T01:32:42.408Z,87.92
2018-10-03T01:33:08.562Z,88.11
2018-10-03T01:33:34.664Z,88.4
2018-10-03T01:34:01.887Z,88.3
2018-10-03T01:34:28.008Z,87.82
2018-10-03T01:34:54.354Z,87.92
2018-10-03T01:35:20.558Z,87.92
2018-10-03T01:35:46.920Z,87.44
2018-10-03T01:36:13.216Z,88.2
2018-10-03T01:36:39.746Z,87.92
2018-10-03T01:37:06.518Z,87.92
2018-10-03T01:37:33.149Z,87.92
2018-10-03T01:37:59.326Z,87.73
2018-10-03T01:38:25.691Z,88.2
2018-10-03T01:38:52.684Z,87.63
2018-10-03T01:39:19.034Z,88.11
2018-10-03T01:39:45.330Z,88.2
2018-10-03T01:40:11.455Z,88.11
2018-10-03T01:40:38.461Z,88.49
2018-10-03T01:41:04.582Z,88.4
2018-10-03T01:41:30.729Z,88.49
2018-10-03T01:41:56.918Z,88.2
2018-10-03T01:42:23.044Z,88.2
2018-10-03T01:42:49.198Z,88.11
2018-10-03T01:43:15.435Z,88.3
2018-10-03T01:43:41.569Z,88.2
2018-10-03T01:44:07.952Z,88.3
2018-10-03T01:44:34.397Z,88.2
2018-10-03T01:45:00.809Z,88.49
2018-10-03T01:45:26.967Z,88.3
2018-10-03T01:45:53.141Z,88.11
2018-10-03T01:46:19.304Z,88.78
2018-10-03T01:46:45.658Z,88.87
2018-10-03T01:47:11.751Z,88.87
2018-10-03T01:47:38.034Z,89.16
2018-10-03T01:48:04.286Z,89.16
2018-10-03T01:48:30.681Z,88.97
2018-10-03T01:48:57.098Z,88.97
2018-10-03T01:49:23.291Z,88.78
2018-10-03T01:49:49.652Z,88.97
2018-10-03T01:50:15.785Z,88.59
2018-10-03T01:50:41.935Z,88.49
2018-10-03T01:51:08.083Z,88.87
2018-10-03T01:51:34.222Z,88.78
2018-10-03T01:52:00.404Z,88.4
2018-10-03T01:52:26.532Z,88.68
2018-10-03T01:52:52.659Z,88.59
2018-10-03T01:53:18.796Z,88.97
2018-10-03T01:53:44.926Z,88.78
2018-10-03T01:54:11.062Z,88.68
2018-10-03T01:54:37.198Z,88.97
2018-10-03T01:55:03.329Z,88.2
2018-10-03T01:55:29.495Z,88.87
2018-10-03T01:55:55.620Z,88.68
2018-10-03T01:56:21.749Z,88.4
2018-10-03T01:56:47.898Z,88.87
2018-10-03T01:57:14.030Z,88.78
2018-10-03T01:57:40.189Z,88.68
2018-10-03T01:58:06.325Z,88.68
2018-10-03T01:58:32.457Z,89.16
2018-10-03T01:58:58.639Z,88.87
2018-10-03T01:59:24.775Z,89.06
2018-10-03T01:59:50.929Z,89.06
2018-10-03T02:00:17.062Z,89.16
2018-10-03T02:00:43.241Z,89.25
2018-10-03T02:01:09.369Z,89.16
2018-10-03T02:01:35.510Z,89.06
2018-10-03T02:02:01.636Z,88.97
2018-10-03T02:02:27.777Z,89.25
2018-10-03T02:02:53.907Z,89.06
2018-10-03T02:03:20.037Z,89.16
2018-10-03T02:03:46.173Z,89.16
2018-10-03T02:04:12.304Z,89.25
2018-10-03T02:04:38.436Z,89.45
2018-10-03T02:05:04.595Z,89.83
2018-10-03T02:05:30.727Z,89.92
2018-10-03T02:05:56.864Z,89.54
2018-10-03T02:06:22.991Z,89.06
2018-10-03T02:06:49.167Z,89.54
2018-10-03T02:07:15.318Z,89.35
2018-10-03T02:07:41.445Z,89.25
2018-10-03T02:08:07.570Z,89.06
2018-10-03T02:08:33.709Z,88.97
2018-10-03T02:08:59.838Z,88.49
2018-10-03T02:09:25.970Z,88.68
2018-10-03T02:09:52.100Z,88.59
2018-10-03T02:10:18.239Z,89.06
2018-10-03T02:10:44.371Z,89.06
2018-10-03T02:11:10.556Z,88.97
2018-10-03T02:11:36.684Z,89.35
2018-10-03T02:12:02.841Z,89.16
2018-10-03T02:12:28.974Z,89.35
2018-10-03T02:12:55.107Z,89.25
2018-10-03T02:13:21.238Z,89.25
2018-10-03T02:13:47.366Z,89.25
2018-10-03T02:14:13.508Z,89.25
2018-10-03T02:14:39.723Z,89.16
2018-10-03T02:15:05.841Z,89.16
2018-10-03T02:15:31.965Z,89.25
2018-10-03T02:15:58.123Z,89.16
2018-10-03T02:16:24.255Z,88.97
2018-10-03T02:16:50.404Z,89.73
2018-10-03T02:17:16.541Z,89.45
2018-10-03T02:17:42.679Z,89.64
2018-10-03T02:18:08.875Z,89.64
2018-10-03T02:18:35.033Z,89.45
2018-10-03T02:19:01.193Z,89.73
2018-10-03T02:19:27.321Z,89.35
2018-10-03T02:19:53.452Z,89.35
2018-10-03T02:20:19.617Z,89.54
2018-10-03T02:20:45.747Z,89.35
2018-10-03T02:21:11.879Z,89.25
2018-10-03T02:21:38.016Z,89.25
2018-10-03T02:22:04.147Z,89.45
2018-10-03T02:22:30.305Z,89.16
2018-10-03T02:22:56.462Z,89.06
2018-10-03T02:23:22.598Z,89.45
2018-10-03T02:23:48.730Z,89.45
2018-10-03T02:24:14.868Z,89.25
2018-10-03T02:24:41.023Z,89.64
2018-10-03T02:25:07.174Z,89.35
2018-10-03T02:25:33.312Z,89.64
2018-10-03T02:25:59.450Z,89.35
2018-10-03T02:26:25.605Z,89.64
2018-10-03T02:26:51.748Z,90.31
2018-10-03T02:27:17.881Z,90.11
2018-10-03T02:27:44.008Z,90.11
2018-10-03T02:28:10.145Z,90.02
2018-10-03T02:28:36.309Z,89.83
2018-10-03T02:29:02.462Z,89.92
2018-10-03T02:29:28.616Z,90.5
2018-10-03T02:29:54.793Z,90.4
2018-10-03T02:30:20.969Z,90.45
2018-10-03T02:30:47.098Z,90.59
2018-10-03T02:31:13.239Z,90.5
2018-10-03T02:31:39.364Z,90.21
2018-10-03T02:32:05.564Z,90.11
2018-10-03T02:32:31.718Z,89.73
2018-10-03T02:32:57.872Z,90.11
2018-10-03T02:33:24.087Z,90.21
2018-10-03T02:33:50.220Z,89.64
2018-10-03T02:34:16.404Z,90.11
2018-10-03T02:34:42.553Z,90.11
2018-10-03T02:35:08.711Z,89.92
2018-10-03T02:35:34.840Z,90.31
2018-10-03T02:36:00.996Z,90.31
2018-10-03T02:36:27.152Z,90.21
2018-10-03T02:36:53.351Z,90.73
2018-10-03T02:37:19.507Z,90.64
2018-10-03T02:37:45.683Z,90.93
2018-10-03T02:38:11.814Z,90.97
2018-10-03T02:38:37.941Z,90.59
2018-10-03T02:39:04.072Z,90.88
2018-10-03T02:39:30.255Z,90.78
2018-10-03T02:39:56.415Z,90.5
2018-10-03T02:40:22.565Z,90.5
2018-10-03T02:40:48.724Z,90.78
2018-10-03T02:41:14.883Z,90.5
2018-10-03T02:41:41.086Z,90.73
2018-10-03T02:42:07.217Z,90.55
2018-10-03T02:42:33.369Z,90.4
2018-10-03T02:42:59.519Z,90.88
2018-10-03T02:43:25.653Z,90.88
2018-10-03T02:43:51.812Z,90.78
2018-10-03T02:44:17.969Z,90.88
2018-10-03T02:44:44.148Z,91.26
2018-10-03T02:45:10.311Z,91.07
2018-10-03T02:45:36.446Z,90.97
2018-10-03T02:46:02.600Z,90.88
2018-10-03T02:46:28.750Z,90.97
2018-10-03T02:46:54.908Z,90.97
2018-10-03T02:47:21.083Z,90.88
2018-10-03T02:47:47.225Z,90.69
2018-10-03T02:48:13.377Z,90.21
2018-10-03T02:48:39.504Z,90.4
2018-10-03T02:49:05.664Z,90.59
2018-10-03T02:49:31.813Z,90.02
2018-10-03T02:49:57.956Z,90.59
2018-10-03T02:50:24.110Z,90.59
2018-10-03T02:50:50.268Z,90.69
2018-10-03T02:51:16.474Z,90.69
2018-10-03T02:51:42.602Z,90.97
2018-10-03T02:52:08.735Z,90.69
2018-10-03T02:52:34.891Z,91.36
2018-10-03T02:53:01.023Z,90.78
2018-10-03T02:53:27.162Z,90.4
2018-10-03T02:53:53.321Z,90.69
2018-10-03T02:54:19.439Z,90.78
2018-10-03T02:54:45.598Z,91.26
2018-10-03T02:55:11.784Z,90.78
2018-10-03T02:55:37.925Z,90.78
2018-10-03T02:56:04.055Z,90.59
2018-10-03T02:56:30.186Z,90.73
2018-10-03T02:56:56.343Z,90.83
2018-10-03T02:57:22.501Z,91.16
2018-10-03T02:57:48.632Z,91.07
2018-10-03T02:58:14.789Z,90.78
2018-10-03T02:58:40.919Z,90.78
2018-10-03T02:59:07.068Z,91.26
2018-10-03T02:59:33.203Z,90.78
2018-10-03T02:59:59.356Z,91.16
2018-10-03T03:00:25.491Z,90.97
2018-10-03T03:00:51.654Z,90.97
2018-10-03T03:01:17.844Z,91.36
2018-10-03T03:01:44.094Z,91.26
2018-10-03T03:02:10.163Z,91.31
2018-10-03T03:02:36.326Z,91.55
2018-10-03T03:03:02.461Z,91.26
2018-10-03T03:03:28.591Z,91.26
2018-10-03T03:03:54.751Z,91.45
2018-10-03T03:04:20.881Z,91.16
2018-10-03T03:04:47.019Z,91.07
2018-10-03T03:05:13.161Z,91.36
2018-10-03T03:05:39.325Z,91.07
2018-10-03T03:06:05.465Z,90.88
2018-10-03T03:06:31.602Z,90.69
2018-10-03T03:06:57.730Z,90.78
2018-10-03T03:07:23.912Z,90.78
2018-10-03T03:07:50.080Z,90.88
2018-10-03T03:08:16.204Z,90.97
2018-10-03T03:08:42.410Z,90.88
2018-10-03T03:09:08.510Z,90.97
2018-10-03T03:09:34.648Z,90.69
2018-10-03T03:10:00.802Z,90.78
2018-10-03T03:10:26.980Z,90.69
2018-10-03T03:10:53.172Z,90.78
2018-10-03T03:11:19.309Z,90.5
2018-10-03T03:11:45.466Z,90.88
2018-10-03T03:12:11.668Z,90.69
2018-10-03T03:12:37.830Z,90.78
2018-10-03T03:13:03.953Z,90.88
2018-10-03T03:13:30.110Z,90.78
2018-10-03T03:13:56.235Z,90.5
2018-10-03T03:14:22.401Z,91.07
2018-10-03T03:14:48.538Z,90.97
2018-10-03T03:15:14.686Z,90.69
2018-10-03T03:15:40.836Z,90.88
2018-10-03T03:16:06.976Z,90.88
2018-10-03T03:16:33.130Z,90.5
2018-10-03T03:16:59.267Z,90.59
2018-10-03T03:17:25.394Z,90.31
2018-10-03T03:17:51.558Z,90.11
2018-10-03T03:18:17.691Z,90.21
2018-10-03T03:18:43.821Z,90.21
2018-10-03T03:19:09.978Z,90.5
2018-10-03T03:19:36.116Z,90.5
2018-10-03T03:20:02.268Z,90.78
2018-10-03T03:20:28.418Z,90.69
2018-10-03T03:20:54.581Z,90.59
2018-10-03T03:21:20.734Z,90.69
2018-10-03T03:21:46.911Z,90.5
2018-10-03T03:22:13.067Z,90.59
2018-10-03T03:22:39.194Z,90.59
2018-10-03T03:23:05.354Z,90.69
2018-10-03T03:23:31.487Z,91.26
2018-10-03T03:23:57.623Z,90.69
2018-10-03T03:24:23.798Z,90.78
2018-10-03T03:24:49.929Z,90.69
2018-10-03T03:25:16.085Z,90.21
2018-10-03T03:25:42.241Z,90.4
2018-10-03T03:26:08.360Z,90.5
2018-10-03T03:26:34.523Z,90.5
2018-10-03T03:27:00.682Z,90.31
2018-10-03T03:27:26.835Z,90.31
2018-10-03T03:27:52.961Z,89.83
2018-10-03T03:28:19.118Z,89.83
2018-10-03T03:28:45.246Z,90.31
2018-10-03T03:29:11.375Z,90.02
2018-10-03T03:29:37.527Z,90.02
2018-10-03T03:30:03.716Z,90.21
2018-10-03T03:30:29.921Z,90.11
2018-10-03T03:30:56.074Z,89.92
2018-10-03T03:31:22.208Z,90.02
2018-10-03T03:31:48.409Z,90.31
2018-10-03T03:32:14.584Z,90.5
2018-10-03T03:32:40.763Z,90.02
2018-10-03T03:33:06.921Z,90.78
2018-10-03T03:33:33.077Z,90.69
2018-10-03T03:33:59.239Z,90.31
2018-10-03T03:34:25.398Z,89.92
2018-10-03T03:34:51.512Z,90.02
2018-10-03T03:35:17.702Z,90.02
2018-10-03T03:35:43.819Z,90.11
2018-10-03T03:36:09.979Z,90.59
2018-10-03T03:36:36.156Z,90.59
2018-10-03T03:37:02.294Z,90.78
2018-10-03T03:37:28.459Z,90.21
2018-10-03T03:37:54.605Z,90.4
2018-10-03T03:38:20.733Z,90.4
2018-10-03T03:38:46.891Z,90.31
2018-10-03T03:39:13.046Z,89.92
2018-10-03T03:39:39.201Z,90.11
2018-10-03T03:40:05.338Z,89.64
2018-10-03T03:40:31.517Z,89.73
2018-10-03T03:40:57.696Z,89.64
2018-10-03T03:41:23.829Z,89.83
2018-10-03T03:41:49.989Z,89.45
2018-10-03T03:42:16.123Z,90.11
2018-10-03T03:42:42.251Z,90.5
2018-10-03T03:43:08.388Z,90.31
2018-10-03T03:43:34.578Z,90.4
2018-10-03T03:44:00.710Z,90.78
2018-10-03T03:44:26.908Z,90.31
2018-10-03T03:44:53.069Z,90.11
2018-10-03T03:45:19.232Z,90.4
2018-10-03T03:45:45.402Z,90.31
2018-10-03T03:46:11.536Z,90.5
2018-10-03T03:46:37.673Z,90.21
2018-10-03T03:47:03.826Z,90.5
2018-10-03T03:47:29.988Z,90.21
2018-10-03T03:47:56.179Z,90.59
2018-10-03T03:48:22.314Z,90.88
2018-10-03T03:48:48.452Z,90.88
2018-10-03T03:49:14.585Z,90.97
2018-10-03T03:49:40.750Z,90.88
2018-10-03T03:50:06.921Z,90.88
2018-10-03T03:50:33.060Z,90.69
2018-10-03T03:50:59.211Z,90.4
2018-10-03T03:51:25.368Z,90.59
2018-10-03T03:51:51.500Z,90.78
2018-10-03T03:52:17.630Z,90.88
2018-10-03T03:52:43.863Z,90.69
2018-10-03T03:53:10.044Z,90.59
2018-10-03T03:53:36.205Z,90.88
2018-10-03T03:54:02.364Z,90.78
2018-10-03T03:54:28.538Z,90.4
2018-10-03T03:54:54.677Z,90.5
2018-10-03T03:55:20.835Z,90.5
2018-10-03T03:55:46.983Z,90.69
2018-10-03T03:56:13.119Z,90.5
2018-10-03T03:56:39.277Z,91.26
2018-10-03T03:57:05.434Z,90.97
2018-10-03T03:57:31.562Z,90.88
2018-10-03T03:57:57.697Z,90.97
2018-10-03T03:58:23.828Z,90.88
2018-10-03T03:58:49.969Z,90.78
2018-10-03T03:59:16.086Z,90.5
2018-10-03T03:59:42.289Z,90.78
2018-10-03T04:00:08.427Z,90.69
2018-10-03T04:00:34.584Z,90.5
2018-10-03T04:01:00.722Z,90.5
2018-10-03T04:01:26.897Z,90.59
2018-10-03T04:01:53.026Z,90.5
2018-10-03T04:02:19.183Z,90.88
2018-10-03T04:02:45.339Z,91.07
2018-10-03T04:03:11.502Z,90.69
2018-10-03T04:03:37.629Z,90.69
2018-10-03T04:04:03.788Z,90.69
2018-10-03T04:04:29.927Z,90.5
2018-10-03T04:04:56.070Z,90.78
2018-10-03T04:05:22.190Z,90.59
2018-10-03T04:05:48.334Z,90.59
2018-10-03T04:06:14.487Z,90.78
2018-10-03T04:06:40.617Z,91.26
2018-10-03T04:07:06.780Z,90.69
2018-10-03T04:07:32.913Z,90.59
2018-10-03T04:07:59.048Z,90.69
2018-10-03T04:08:25.250Z,90.97
2018-10-03T04:08:51.408Z,90.88
2018-10-03T04:09:17.584Z,90.88
2018-10-03T04:09:43.665Z,90.88
2018-10-03T04:10:09.806Z,90.78
2018-10-03T04:10:35.996Z,91.26
2018-10-03T04:11:02.146Z,90.78
2018-10-03T04:11:28.349Z,90.78
2018-10-03T04:11:54.483Z,90.97
2018-10-03T04:12:20.639Z,90.97
2018-10-03T04:12:46.768Z,90.88
2018-10-03T04:13:12.905Z,90.69
2018-10-03T04:13:39.060Z,90.88
2018-10-03T04:14:05.188Z,90.69
2018-10-03T04:14:31.343Z,90.69
2018-10-03T04:14:57.481Z,91.16
2018-10-03T04:15:23.609Z,90.78
2018-10-03T04:15:49.761Z,90.59
2018-10-03T04:16:15.899Z,90.69
2018-10-03T04:16:42.030Z,90.69
2018-10-03T04:17:08.183Z,90.78
2018-10-03T04:17:34.346Z,90.69
2018-10-03T04:18:00.498Z,90.69
2018-10-03T04:18:26.649Z,90.4
2018-10-03T04:18:52.796Z,90.31
2018-10-03T04:19:18.930Z,90.31
2018-10-03T04:19:45.119Z,90.97
2018-10-03T04:20:11.253Z,90.88
2018-10-03T04:20:37.385Z,90.59
2018-10-03T04:21:03.526Z,90.97
2018-10-03T04:21:29.646Z,90.69
2018-10-03T04:21:55.777Z,90.78
2018-10-03T04:22:21.914Z,90.4
2018-10-03T04:22:48.078Z,90.78
2018-10-03T04:23:14.232Z,90.78
2018-10-03T04:23:40.366Z,90.97
2018-10-03T04:24:06.502Z,90.88
2018-10-03T04:24:32.632Z,90.5
2018-10-03T04:24:58.767Z,90.69
2018-10-03T04:25:24.901Z,90.78
2018-10-03T04:25:51.042Z,91.07
2018-10-03T04:26:17.176Z,91.36
2018-10-03T04:26:43.328Z,90.88
2018-10-03T04:27:09.459Z,90.31
2018-10-03T04:27:35.593Z,90.69
2018-10-03T04:28:01.759Z,91.07
2018-10-03T04:28:27.888Z,90.59
2018-10-03T04:28:54.022Z,90.97
2018-10-03T04:29:20.157Z,91.07
2018-10-03T04:29:46.297Z,90.97
2018-10-03T04:30:12.453Z,90.88
2018-10-03T04:30:38.594Z,91.26
2018-10-03T04:31:04.721Z,90.69
2018-10-03T04:31:30.847Z,90.59
2018-10-03T04:31:56.985Z,90.59
2018-10-03T04:32:23.113Z,90.4
2018-10-03T04:32:49.245Z,90.59
2018-10-03T04:33:15.401Z,90.5
2018-10-03T04:33:41.528Z,90.59
2018-10-03T04:34:07.704Z,90.69
2018-10-03T04:34:33.841Z,90.59
2018-10-03T04:34:59.975Z,90.59
2018-10-03T04:35:26.157Z,90.88
2018-10-03T04:35:52.261Z,90.78
2018-10-03T04:36:18.398Z,91.26
2018-10-03T04:36:44.551Z,90.69
2018-10-03T04:37:10.710Z,90.59
2018-10-03T04:37:36.846Z,90.31
2018-10-03T04:38:03.003Z,90.78
2018-10-03T04:38:29.136Z,90.31
2018-10-03T04:38:55.270Z,90.4
2018-10-03T04:39:21.424Z,90.31
2018-10-03T04:39:47.584Z,90.11
2018-10-03T04:40:13.739Z,90.31
2018-10-03T04:40:39.872Z,90.4
2018-10-03T04:41:06.022Z,90.11
2018-10-03T04:41:32.203Z,89.73
2018-10-03T04:41:58.357Z,90.11
2018-10-03T04:42:24.583Z,90.11
2018-10-03T04:42:50.680Z,90.31
2018-10-03T04:43:16.811Z,90.02
2018-10-03T04:43:42.948Z,90.02
2018-10-03T04:44:09.082Z,90.31
2018-10-03T04:44:35.238Z,90.4
2018-10-03T04:45:01.393Z,90.59
2018-10-03T04:45:27.548Z,90.78
2018-10-03T04:45:53.678Z,91.26
2018-10-03T04:46:19.810Z,90.69
2018-10-03T04:46:45.939Z,91.16
2018-10-03T04:47:12.073Z,90.78
2018-10-03T04:47:38.197Z,90.88
2018-10-03T04:48:04.333Z,90.69
2018-10-03T04:48:30.463Z,90.78
2018-10-03T04:48:56.673Z,90.88
2018-10-03T04:49:22.771Z,91.45
2018-10-03T04:49:48.902Z,90.69
2018-10-03T04:50:15.034Z,90.69
2018-10-03T04:50:41.169Z,91.36
2018-10-03T04:51:07.297Z,91.07
2018-10-03T04:51:33.427Z,91.36
2018-10-03T04:51:59.560Z,90.78
2018-10-03T04:52:25.697Z,90.88
2018-10-03T04:52:51.851Z,90.97
2018-10-03T04:53:17.985Z,90.88
2018-10-03T04:53:44.123Z,91.36
2018-10-03T04:54:10.250Z,91.26
2018-10-03T04:54:36.393Z,90.78
2018-10-03T04:55:02.519Z,90.69
2018-10-03T04:55:28.674Z,90.69
2018-10-03T04:55:54.809Z,90.78
2018-10-03T04:56:20.966Z,90.5
2018-10-03T04:56:47.094Z,90.78
2018-10-03T04:57:13.228Z,90.69
2018-10-03T04:57:39.367Z,90.78
2018-10-03T04:58:05.497Z,90.78
2018-10-03T04:58:31.650Z,91.16
2018-10-03T04:58:57.814Z,90.69
2018-10-03T04:59:23.954Z,90.78
2018-10-03T04:59:50.082Z,91.16
2018-10-03T05:00:16.216Z,90.59
2018-10-03T05:00:42.353Z,90.88
2018-10-03T05:01:08.490Z,90.97
2018-10-03T05:01:34.618Z,91.45
2018-10-03T05:02:00.773Z,90.64
2018-10-03T05:02:26.911Z,90.78
2018-10-03T05:02:53.067Z,91.36
2018-10-03T05:03:19.200Z,90.59
2018-10-03T05:03:45.341Z,90.78
2018-10-03T05:04:11.467Z,90.88
2018-10-03T05:04:37.603Z,90.5
2018-10-03T05:05:03.739Z,90.59
2018-10-03T05:05:29.869Z,90.59
2018-10-03T05:05:56.002Z,90.59
2018-10-03T05:06:22.166Z,91.36
2018-10-03T05:06:48.286Z,91.26
2018-10-03T05:07:14.431Z,91.16
2018-10-03T05:07:40.567Z,90.88
2018-10-03T05:08:06.714Z,91.31
2018-10-03T05:08:32.844Z,90.88
2018-10-03T05:08:58.980Z,91.16
2018-10-03T05:09:25.111Z,90.93
2018-10-03T05:09:51.262Z,90.73
2018-10-03T05:10:17.428Z,90.93
2018-10-03T05:10:43.570Z,90.83
2018-10-03T05:11:09.724Z,91.07
2018-10-03T05:11:35.843Z,91.12
2018-10-03T05:12:01.976Z,91.21
2018-10-03T05:12:28.157Z,91.41
2018-10-03T05:12:54.286Z,91.31
2018-10-03T05:13:20.424Z,91.36
2018-10-03T05:13:46.563Z,91.21
2018-10-03T05:14:12.697Z,91.31
2018-10-03T05:14:38.828Z,91.12
2018-10-03T05:15:04.977Z,91.21
2018-10-03T05:15:31.120Z,91.12
2018-10-03T05:15:57.243Z,91.41
2018-10-03T05:16:23.406Z,91.16
2018-10-03T05:16:49.540Z,91.12
2018-10-03T05:17:15.676Z,90.78
2018-10-03T05:17:41.803Z,91.21
2018-10-03T05:18:07.938Z,90.73
2018-10-03T05:18:34.068Z,90.73
2018-10-03T05:19:00.220Z,91.55
2018-10-03T05:19:26.353Z,91.16
2018-10-03T05:19:52.489Z,90.88
2018-10-03T05:20:18.626Z,91.12
2018-10-03T05:20:44.779Z,90.78
2018-10-03T05:21:10.936Z,91.12
2018-10-03T05:21:37.085Z,91.12
2018-10-03T05:22:03.240Z,91.31
2018-10-03T05:22:29.381Z,90.83
2018-10-03T05:22:55.541Z,91.5
2018-10-03T05:23:21.670Z,91.31
2018-10-03T05:23:47.836Z,91.12
2018-10-03T05:24:13.966Z,91.6
2018-10-03T05:24:40.097Z,91.5
2018-10-03T05:25:06.250Z,91.6
2018-10-03T05:25:32.413Z,91.36
2018-10-03T05:25:58.545Z,91.64
2018-10-03T05:26:24.676Z,91.26
2018-10-03T05:26:50.809Z,91.21
2018-10-03T05:27:16.943Z,90.97
2018-10-03T05:27:43.127Z,91.16
2018-10-03T05:28:09.270Z,91.26
2018-10-03T05:28:35.403Z,90.69
2018-10-03T05:29:01.540Z,90.4
2018-10-03T05:29:27.701Z,90.78
2018-10-03T05:29:53.832Z,90.78
2018-10-03T05:30:19.990Z,90.93
2018-10-03T05:30:46.123Z,90.73
2018-10-03T05:31:12.255Z,91.02
2018-10-03T05:31:38.393Z,90.73
2018-10-03T05:32:04.531Z,90.69
2018-10-03T05:32:30.661Z,90.78
2018-10-03T05:32:56.804Z,90.88
2018-10-03T05:33:22.988Z,90.88
2018-10-03T05:33:49.073Z,90.69
2018-10-03T05:34:15.204Z,90.78
2018-10-03T05:34:41.342Z,90.88
2018-10-03T05:35:07.498Z,90.97
2018-10-03T05:35:33.645Z,90.45
2018-10-03T05:35:59.771Z,91.21
2018-10-03T05:36:25.926Z,91.16
2018-10-03T05:36:52.099Z,91.21
2018-10-03T05:37:18.216Z,91.12
2018-10-03T05:37:44.349Z,91.36
2018-10-03T05:38:10.483Z,90.73
2018-10-03T05:38:36.633Z,91.12